Wetterdaten: Woche 21.03.16 - 27.03.16 (KW12)
Datum Zeit Temp. A. Feuchte A. Luftdruck Regen Wind Richtung Taupunkt Windchill Windben
21.03.2016 00:00 1,7 C 85 % 1018,9 hPa 0,0 l/m 1,3 km/h (1 Bft) W-NW -0,5 C 1,7 C 2,6 km/h (1 Bft)
21.03.2016 01:00 1,6 C 84 % 1018,6 hPa 0,0 l/m 0,6 km/h (0 Bft) S-SW -0,7 C 1,6 C 1,9 km/h (1 Bft)
21.03.2016 02:00 1,6 C 84 % 1018,3 hPa 0,0 l/m 0,4 km/h (0 Bft) W-SW -0,8 C 1,6 C 1,4 km/h (1 Bft)
21.03.2016 03:00 1,5 C 85 % 1018,2 hPa 0,0 l/m 0,4 km/h (0 Bft) W-SW -0,8 C 1,5 C 1,2 km/h (1 Bft)
21.03.2016 04:00 1,3 C 86 % 1018,1 hPa 0,0 l/m 0,1 km/h (0 Bft) W-SW -0,8 C 1,3 C 1,3 km/h (1 Bft)
21.03.2016 05:00 1,0 C 87 % 1018,1 hPa 0,0 l/m 0,1 km/h (0 Bft) W-SW -0,8 C 1,0 C 0,8 km/h (0 Bft)
21.03.2016 06:00 0,6 C 89 % 1018,3 hPa 0,0 l/m 0,1 km/h (0 Bft) W-SW -1,1 C 0,6 C 0,7 km/h (0 Bft)
21.03.2016 07:00 0,9 C 89 % 1018,6 hPa 0,0 l/m 0,2 km/h (0 Bft) W-SW -0,7 C 0,9 C 1,5 km/h (1 Bft)
21.03.2016 08:00 2,5 C 82 % 1018,7 hPa 0,0 l/m 1,0 km/h (0 Bft) W-SW -0,3 C 2,5 C 2,8 km/h (1 Bft)
21.03.2016 09:00 3,7 C 73 % 1018,8 hPa 0,0 l/m 2,1 km/h (1 Bft) NW -0,7 C 3,7 C 5,3 km/h (1 Bft)
21.03.2016 10:00 5,5 C 64 % 1018,9 hPa 0,0 l/m 3,5 km/h (1 Bft) NW -0,8 C 5,5 C 8,3 km/h (2 Bft)
21.03.2016 11:00 6,9 C 59 % 1018,5 hPa 0,0 l/m 4,1 km/h (1 Bft) NW -0,5 C 6,9 C 9,3 km/h (2 Bft)
21.03.2016 12:00 7,0 C 59 % 1018,3 hPa 0,0 l/m 3,3 km/h (1 Bft) W -0,5 C 7,0 C 7,5 km/h (2 Bft)
21.03.2016 13:00 7,3 C 57 % 1017,9 hPa 0,0 l/m 3,0 km/h (1 Bft) NW -0,6 C 7,3 C 6,8 km/h (2 Bft)
21.03.2016 14:00 7,6 C 56 % 1017,6 hPa 0,0 l/m 2,8 km/h (1 Bft) W-NW -0,6 C 7,6 C 6,8 km/h (2 Bft)
21.03.2016 15:00 7,4 C 58 % 1017,4 hPa 0,0 l/m 3,0 km/h (1 Bft) W-NW -0,4 C 7,4 C 5,9 km/h (2 Bft)
21.03.2016 16:00 7,5 C 59 % 1017,1 hPa 0,0 l/m 2,6 km/h (1 Bft) NW -0,1 C 7,5 C 6,7 km/h (2 Bft)
21.03.2016 17:00 6,5 C 65 % 1017,1 hPa 0,0 l/m 1,6 km/h (1 Bft) W-NW 0,4 C 6,5 C 4,3 km/h (1 Bft)
21.03.2016 18:00 5,9 C 68 % 1017,1 hPa 0,0 l/m 1,4 km/h (1 Bft) W-NW 0,4 C 5,9 C 3,5 km/h (1 Bft)
21.03.2016 19:00 5,0 C 73 % 1017,4 hPa 0,0 l/m 1,8 km/h (1 Bft) N-NW 0,5 C 5,0 C 4,9 km/h (1 Bft)
21.03.2016 20:00 3,1 C 79 % 1017,5 hPa 0,0 l/m 0,3 km/h (0 Bft) N-NW -0,2 C 3,1 C 1,2 km/h (1 Bft)
21.03.2016 21:00 2,2 C 83 % 1017,6 hPa 0,0 l/m 0,0 km/h (0 Bft) N-NW -0,4 C 2,2 C 0,2 km/h (0 Bft)
21.03.2016 22:00 2,2 C 85 % 1017,6 hPa 0,0 l/m 0,2 km/h (0 Bft) N-NW -0,1 C 2,2 C 0,9 km/h (0 Bft)
21.03.2016 23:00 2,5 C 84 % 1017,3 hPa 0,0 l/m 0,0 km/h (0 Bft) W-SW 0,0 C 2,5 C 0,7 km/h (0 Bft)
22.03.2016 00:00 2,3 C 85 % 1017,0 hPa 0,0 l/m 0,0 km/h (0 Bft) N 0,0 C 2,3 C 0,1 km/h (0 Bft)
22.03.2016 01:00 2,2 C 85 % 1016,7 hPa 0,0 l/m 0,0 km/h (0 Bft) N -0,0 C 2,2 C 0,3 km/h (0 Bft)
22.03.2016 02:00 2,0 C 86 % 1016,2 hPa 0,0 l/m 0,1 km/h (0 Bft) N -0,1 C 2,0 C 0,3 km/h (0 Bft)
22.03.2016 03:00 1,5 C 87 % 1015,7 hPa 0,0 l/m 0,5 km/h (0 Bft) W-SW -0,4 C 1,5 C 1,2 km/h (1 Bft)
22.03.2016 04:00 0,9 C 89 % 1015,3 hPa 0,0 l/m 0,0 km/h (0 Bft) W-SW -0,8 C 0,9 C 0,3 km/h (0 Bft)
22.03.2016 05:00 0,2 C 90 % 1015,1 hPa 0,0 l/m 0,0 km/h (0 Bft) W-SW -1,2 C 0,2 C 0,1 km/h (0 Bft)
22.03.2016 06:00 0,0 C 91 % 1015,1 hPa 0,0 l/m 0,1 km/h (0 Bft) W-SW -1,2 C 0,0 C 0,6 km/h (0 Bft)
22.03.2016 07:00 0,6 C 91 % 1015,1 hPa 0,0 l/m 0,0 km/h (0 Bft) W-SW -0,7 C 0,6 C 0,3 km/h (0 Bft)
22.03.2016 08:00 1,9 C 88 % 1015,0 hPa 0,0 l/m 0,2 km/h (0 Bft) W-SW 0,1 C 1,9 C 1,0 km/h (0 Bft)
22.03.2016 09:00 3,1 C 84 % 1014,8 hPa 0,0 l/m 0,8 km/h (0 Bft) W-SW 0,7 C 3,1 C 2,4 km/h (1 Bft)
22.03.2016 10:00 5,2 C 75 % 1014,4 hPa 0,0 l/m 3,4 km/h (1 Bft) W-NW 1,0 C 5,2 C 9,0 km/h (2 Bft)
22.03.2016 11:00 6,5 C 65 % 1014,0 hPa 0,0 l/m 3,3 km/h (1 Bft) W-NW 0,4 C 6,5 C 7,8 km/h (2 Bft)
22.03.2016 12:00 6,5 C 64 % 1013,8 hPa 0,0 l/m 3,7 km/h (1 Bft) W-NW 0,2 C 6,5 C 8,5 km/h (2 Bft)
22.03.2016 13:00 7,8 C 55 % 1013,1 hPa 0,0 l/m 3,0 km/h (1 Bft) NW -0,7 C 7,8 C 8,0 km/h (2 Bft)
22.03.2016 14:00 8,1 C 51 % 1012,5 hPa 0,0 l/m 4,1 km/h (1 Bft) W-NW -1,3 C 7,9 C 11,1 km/h (2 Bft)
22.03.2016 15:00 8,7 C 46 % 1012,1 hPa 0,0 l/m 3,7 km/h (1 Bft) NW -2,2 C 8,7 C 8,7 km/h (2 Bft)
22.03.2016 16:00 9,0 C 45 % 1011,6 hPa 0,0 l/m 3,9 km/h (1 Bft) W-NW -2,4 C 9,0 C 10,5 km/h (2 Bft)
22.03.2016 17:00 7,1 C 52 % 1011,6 hPa 0,0 l/m 2,0 km/h (1 Bft) NW -2,2 C 7,1 C 4,9 km/h (1 Bft)
22.03.2016 18:00 6,3 C 55 % 1011,6 hPa 0,0 l/m 0,9 km/h (0 Bft) N-NW -2,0 C 6,3 C 2,6 km/h (1 Bft)
22.03.2016 19:00 5,4 C 61 % 1011,5 hPa 0,0 l/m 0,6 km/h (0 Bft) W -1,4 C 5,4 C 2,8 km/h (1 Bft)
22.03.2016 20:00 3,6 C 69 % 1011,5 hPa 0,0 l/m 0,4 km/h (0 Bft) S -1,6 C 3,6 C 1,8 km/h (1 Bft)
22.03.2016 21:00 1,9 C 76 % 1011,4 hPa 0,0 l/m 0,0 km/h (0 Bft) S -1,8 C 1,9 C 0,1 km/h (0 Bft)
22.03.2016 22:00 1,2 C 81 % 1011,1 hPa 0,0 l/m 0,0 km/h (0 Bft) S -1,6 C 1,2 C 0,0 km/h (0 Bft)
22.03.2016 23:00 0,9 C 82 % 1010,7 hPa 0,0 l/m 0,5 km/h (0 Bft) S -1,8 C 0,9 C 1,6 km/h (1 Bft)
23.03.2016 00:00 0,7 C 83 % 1010,3 hPa 0,0 l/m 0,5 km/h (0 Bft) W-SW -1,8 C 0,7 C 1,8 km/h (1 Bft)
23.03.2016 01:00 0,6 C 85 % 1009,9 hPa 0,0 l/m 0,1 km/h (0 Bft) W-SW -1,6 C 0,6 C 1,1 km/h (0 Bft)
23.03.2016 02:00 1,1 C 84 % 1009,4 hPa 0,0 l/m 0,1 km/h (0 Bft) W-SW -1,2 C 1,1 C 0,7 km/h (0 Bft)
23.03.2016 03:00 1,4 C 84 % 1009,0 hPa 0,0 l/m 0,1 km/h (0 Bft) W-SW -0,9 C 1,4 C 0,7 km/h (0 Bft)
23.03.2016 04:00 2,2 C 88 % 1008,7 hPa 0,0 l/m 0,5 km/h (0 Bft) W-SW 0,5 C 2,2 C 2,1 km/h (1 Bft)
23.03.2016 05:00 2,6 C 92 % 1008,6 hPa 0,3 l/m 0,7 km/h (0 Bft) W 1,3 C 2,6 C 2,2 km/h (1 Bft)
23.03.2016 06:00 2,4 C 94 % 1008,7 hPa 0,3 l/m 0,5 km/h (0 Bft) N 1,5 C 2,4 C 1,8 km/h (1 Bft)
23.03.2016 07:00 2,5 C 95 % 1009,0 hPa 0,0 l/m 0,4 km/h (0 Bft) S 1,8 C 2,5 C 2,1 km/h (1 Bft)
23.03.2016 08:00 2,9 C 95 % 1009,1 hPa 0,0 l/m 0,7 km/h (0 Bft) W 2,2 C 2,9 C 2,3 km/h (1 Bft)
23.03.2016 09:00 3,2 C 95 % 1009,2 hPa 0,0 l/m 1,6 km/h (1 Bft) NW 2,4 C 3,2 C 4,0 km/h (1 Bft)
23.03.2016 10:00 3,6 C 93 % 1009,6 hPa 0,3 l/m 2,3 km/h (1 Bft) NW 2,7 C 3,6 C 5,6 km/h (2 Bft)
23.03.2016 11:00 4,3 C 91 % 1009,8 hPa 0,0 l/m 3,2 km/h (1 Bft) W-NW 2,8 C 4,3 C 7,3 km/h (2 Bft)
23.03.2016 12:00 5,3 C 86 % 1009,6 hPa 0,0 l/m 3,6 km/h (1 Bft) W-NW 3,2 C 5,3 C 8,4 km/h (2 Bft)
23.03.2016 13:00 5,6 C 80 % 1009,6 hPa 0,0 l/m 3,7 km/h (1 Bft) W-NW 2,5 C 5,6 C 11,0 km/h (2 Bft)
23.03.2016 14:00 5,8 C 83 % 1009,4 hPa 0,0 l/m 3,5 km/h (1 Bft) W-NW 3,1 C 5,8 C 7,8 km/h (2 Bft)
23.03.2016 15:00 5,5 C 84 % 1009,5 hPa 0,3 l/m 2,6 km/h (1 Bft) W 3,1 C 5,5 C 5,7 km/h (2 Bft)
23.03.2016 16:00 4,3 C 91 % 1009,9 hPa 0,5 l/m 0,9 km/h (0 Bft) SW 2,9 C 4,3 C 3,3 km/h (1 Bft)
23.03.2016 17:00 4,6 C 91 % 1010,3 hPa 0,0 l/m 0,8 km/h (0 Bft) N 3,2 C 4,6 C 2,9 km/h (1 Bft)
23.03.2016 18:00 4,2 C 93 % 1010,7 hPa 0,0 l/m 0,5 km/h (0 Bft) NO 3,1 C 4,2 C 1,8 km/h (1 Bft)
23.03.2016 19:00 3,7 C 94 % 1011,3 hPa 0,0 l/m 0,2 km/h (0 Bft) NO 2,9 C 3,7 C 1,6 km/h (1 Bft)
23.03.2016 20:00 3,3 C 95 % 1012,1 hPa 0,0 l/m 0,1 km/h (0 Bft) NO 2,6 C 3,3 C 1,0 km/h (0 Bft)
23.03.2016 21:00 2,8 C 95 % 1012,5 hPa 0,0 l/m 0,0 km/h (0 Bft) NO 2,1 C 2,8 C 0,8 km/h (0 Bft)
23.03.2016 22:00 1,7 C 95 % 1012,8 hPa 0,0 l/m 0,1 km/h (0 Bft) NO 1,0 C 1,7 C 0,5 km/h (0 Bft)
23.03.2016 23:00 0,4 C 95 % 1013,0 hPa 0,0 l/m 0,1 km/h (0 Bft) NO -0,3 C 0,4 C 0,8 km/h (0 Bft)
24.03.2016 00:00 -0,5 C 95 % 1013,1 hPa 0,0 l/m 0,0 km/h (0 Bft) NO -1,1 C -0,5 C 0,3 km/h (0 Bft)
24.03.2016 01:00 -0,7 C 97 % 1013,5 hPa 0,0 l/m 0,0 km/h (0 Bft) NO -1,2 C -0,7 C 0,1 km/h (0 Bft)
24.03.2016 02:00 -0,9 C 97 % 1013,5 hPa 0,0 l/m 0,0 km/h (0 Bft) NO -1,4 C -0,9 C 0,0 km/h (0 Bft)
24.03.2016 03:00 -1,3 C 97 % 1013,5 hPa 0,0 l/m 0,0 km/h (0 Bft) NO -1,8 C -1,3 C 0,1 km/h (0 Bft)
24.03.2016 04:00 -1,4 C 97 % 1013,7 hPa 0,0 l/m 0,2 km/h (0 Bft) NO -1,9 C -1,4 C 1,3 km/h (1 Bft)
24.03.2016 05:00 -1,4 C 97 % 1014,1 hPa 0,0 l/m 0,1 km/h (0 Bft) NO -1,9 C -1,4 C 0,6 km/h (0 Bft)
24.03.2016 06:00 -1,0 C 97 % 1014,6 hPa 0,0 l/m 0,0 km/h (0 Bft) NO -1,4 C -1,0 C 0,9 km/h (0 Bft)
24.03.2016 07:00 -0,4 C 97 % 1015,3 hPa 0,0 l/m 0,1 km/h (0 Bft) NO -0,8 C -0,4 C 1,3 km/h (1 Bft)
24.03.2016 08:00 0,4 C 97 % 1015,8 hPa 0,0 l/m 1,0 km/h (0 Bft) N-NO 0,1 C 0,4 C 2,8 km/h (1 Bft)
24.03.2016 09:00 1,3 C 98 % 1016,1 hPa 0,0 l/m 0,9 km/h (0 Bft) N-NO 1,0 C 1,3 C 2,4 km/h (1 Bft)
24.03.2016 10:00 4,1 C 90 % 1016,2 hPa 0,0 l/m 3,9 km/h (1 Bft) O-NO 2,6 C 4,1 C 9,0 km/h (2 Bft)
24.03.2016 11:00 6,4 C 74 % 1016,2 hPa 0,0 l/m 5,7 km/h (2 Bft) NO 2,0 C 6,4 C 12,4 km/h (2 Bft)
24.03.2016 12:00 6,1 C 70 % 1016,3 hPa 0,0 l/m 4,5 km/h (1 Bft) O-NO 1,1 C 6,1 C 9,6 km/h (2 Bft)
24.03.2016 13:00 6,1 C 66 % 1016,4 hPa 0,0 l/m 3,8 km/h (1 Bft) O-NO 0,3 C 6,1 C 10,1 km/h (2 Bft)
24.03.2016 14:00 6,6 C 61 % 1016,4 hPa 0,0 l/m 4,5 km/h (1 Bft) O-NO -0,5 C 6,6 C 10,2 km/h (2 Bft)
24.03.2016 15:00 6,4 C 60 % 1016,6 hPa 0,0 l/m 3,5 km/h (1 Bft) O-NO -0,7 C 6,4 C 7,8 km/h (2 Bft)
24.03.2016 16:00 6,8 C 57 % 1016,7 hPa 0,0 l/m 2,5 km/h (1 Bft) O -1,2 C 6,8 C 7,5 km/h (2 Bft)
24.03.2016 17:00 6,2 C 59 % 1016,7 hPa 0,0 l/m 0,7 km/h (0 Bft) S -1,2 C 6,2 C 2,5 km/h (1 Bft)
24.03.2016 18:00 5,6 C 63 % 1016,9 hPa 0,0 l/m 0,1 km/h (0 Bft) S -0,9 C 5,6 C 1,3 km/h (1 Bft)
24.03.2016 19:00 3,0 C 77 % 1017,3 hPa 0,0 l/m 0,3 km/h (0 Bft) S -0,7 C 3,0 C 1,6 km/h (1 Bft)
24.03.2016 20:00 1,6 C 83 % 1017,7 hPa 0,0 l/m 0,0 km/h (0 Bft) S -1,1 C 1,6 C 0,2 km/h (0 Bft)
24.03.2016 21:00 1,6 C 84 % 1017,7 hPa 0,0 l/m 0,0 km/h (0 Bft) S -0,8 C 1,6 C 0,2 km/h (0 Bft)
24.03.2016 22:00 1,8 C 85 % 1017,6 hPa 0,0 l/m 0,0 km/h (0 Bft) S -0,5 C 1,8 C 0,1 km/h (0 Bft)
24.03.2016 23:00 2,0 C 86 % 1017,6 hPa 0,0 l/m 0,0 km/h (0 Bft) S -0,0 C 2,0 C 0,0 km/h (0 Bft)
25.03.2016 00:00 2,1 C 87 % 1017,5 hPa 0,0 l/m 0,0 km/h (0 Bft) N 0,2 C 2,1 C 0,1 km/h (0 Bft)
25.03.2016 01:00 2,1 C 87 % 1017,4 hPa 0,0 l/m 0,0 km/h (0 Bft) N 0,2 C 2,1 C 0,1 km/h (0 Bft)
25.03.2016 02:00 1,9 C 88 % 1017,2 hPa 0,0 l/m 0,0 km/h (0 Bft) N 0,2 C 1,9 C 0,1 km/h (0 Bft)
25.03.2016 03:00 1,9 C 89 % 1016,9 hPa 0,0 l/m 0,0 km/h (0 Bft) S 0,2 C 1,9 C 0,0 km/h (0 Bft)
25.03.2016 04:00 2,0 C 87 % 1016,6 hPa 0,0 l/m 0,1 km/h (0 Bft) S 0,1 C 2,0 C 0,9 km/h (0 Bft)
25.03.2016 05:00 2,0 C 88 % 1016,7 hPa 0,0 l/m 0,3 km/h (0 Bft) S 0,2 C 2,0 C 0,6 km/h (0 Bft)
25.03.2016 06:00 2,3 C 89 % 1016,8 hPa 0,0 l/m 4,3 km/h (1 Bft) O-NO 0,6 C 1,9 C 9,8 km/h (2 Bft)
25.03.2016 07:00 2,3 C 91 % 1016,9 hPa 0,3 l/m 3,5 km/h (1 Bft) O-NO 1,0 C 2,3 C 7,5 km/h (2 Bft)
25.03.2016 08:00 2,6 C 93 % 1016,6 hPa 0,3 l/m 2,5 km/h (1 Bft) O 1,5 C 2,6 C 6,1 km/h (2 Bft)
25.03.2016 09:00 2,9 C 93 % 1016,3 hPa 0,5 l/m 4,7 km/h (1 Bft) O-NO 1,9 C 2,9 C 9,6 km/h (2 Bft)
25.03.2016 10:00 3,3 C 92 % 1016,0 hPa 0,3 l/m 6,3 km/h (2 Bft) NO 2,2 C 2,8 C 15,8 km/h (3 Bft)
25.03.2016 11:00 3,4 C 93 % 1015,8 hPa 0,8 l/m 5,8 km/h (2 Bft) O-NO 2,3 C 3,0 C 13,2 km/h (3 Bft)
25.03.2016 12:00 3,7 C 93 % 1015,5 hPa 0,5 l/m 6,1 km/h (2 Bft) O-NO 2,7 C 3,2 C 13,4 km/h (3 Bft)
25.03.2016 13:00 4,2 C 93 % 1015,1 hPa 1,5 l/m 6,1 km/h (2 Bft) N-NO 3,2 C 3,9 C 14,4 km/h (3 Bft)
25.03.2016 14:00 4,0 C 93 % 1014,9 hPa 1,0 l/m 7,1 km/h (2 Bft) NO 3,0 C 3,2 C 15,1 km/h (3 Bft)
25.03.2016 15:00 4,2 C 94 % 1015,0 hPa 1,5 l/m 6,4 km/h (2 Bft) O-NO 3,3 C 3,7 C 14,1 km/h (3 Bft)
25.03.2016 16:00 4,0 C 94 % 1015,5 hPa 1,3 l/m 4,8 km/h (1 Bft) O 3,0 C 4,0 C 12,6 km/h (3 Bft)
25.03.2016 17:00 3,8 C 94 % 1016,0 hPa 0,8 l/m 4,6 km/h (1 Bft) O-NO 2,9 C 3,5 C 12,0 km/h (2 Bft)
25.03.2016 18:00 3,9 C 94 % 1016,5 hPa 0,3 l/m 2,9 km/h (1 Bft) O-NO 3,1 C 3,9 C 7,9 km/h (2 Bft)
25.03.2016 19:00 4,4 C 95 % 1017,5 hPa 0,3 l/m 6,0 km/h (2 Bft) NO 3,6 C 4,0 C 15,0 km/h (3 Bft)
25.03.2016 20:00 4,7 C 95 % 1018,4 hPa 0,8 l/m 3,6 km/h (1 Bft) O 4,0 C 4,7 C 9,0 km/h (2 Bft)
25.03.2016 21:00 4,8 C 95 % 1018,6 hPa 0,5 l/m 2,3 km/h (1 Bft) O 4,1 C 4,8 C 5,9 km/h (2 Bft)
25.03.2016 22:00 4,9 C 95 % 1018,7 hPa 2,0 l/m 2,8 km/h (1 Bft) O 4,2 C 4,9 C 7,1 km/h (2 Bft)
25.03.2016 23:00 5,1 C 95 % 1019,1 hPa 0,3 l/m 2,1 km/h (1 Bft) O-NO 4,3 C 5,1 C 5,4 km/h (2 Bft)
26.03.2016 00:00 5,1 C 95 % 1019,3 hPa 0,5 l/m 1,4 km/h (1 Bft) O 4,3 C 5,1 C 3,6 km/h (1 Bft)
26.03.2016 01:00 4,8 C 96 % 1019,7 hPa 0,3 l/m 0,2 km/h (0 Bft) NO 4,2 C 4,8 C 1,5 km/h (1 Bft)
26.03.2016 02:00 4,5 C 96 % 1020,0 hPa 0,0 l/m 0,1 km/h (0 Bft) NO 3,9 C 4,5 C 0,3 km/h (0 Bft)
26.03.2016 03:00 4,2 C 96 % 1020,3 hPa 0,0 l/m 0,1 km/h (0 Bft) NO 3,7 C 4,2 C 0,8 km/h (0 Bft)
26.03.2016 04:00 3,7 C 96 % 1020,6 hPa 0,0 l/m 0,1 km/h (0 Bft) NO 3,1 C 3,7 C 0,8 km/h (0 Bft)
26.03.2016 05:00 2,7 C 97 % 1021,0 hPa 0,0 l/m 0,0 km/h (0 Bft) NO 2,2 C 2,7 C 0,3 km/h (0 Bft)
26.03.2016 06:00 2,6 C 97 % 1021,3 hPa 0,0 l/m 0,1 km/h (0 Bft) NO 2,2 C 2,6 C 0,4 km/h (0 Bft)
26.03.2016 07:00 3,1 C 97 % 1021,5 hPa 0,0 l/m 0,3 km/h (0 Bft) NO 2,7 C 3,1 C 0,9 km/h (0 Bft)
26.03.2016 08:00 5,1 C 96 % 1021,5 hPa 0,0 l/m 1,1 km/h (1 Bft) NO 4,5 C 5,1 C 3,5 km/h (1 Bft)
26.03.2016 09:00 6,9 C 89 % 1021,2 hPa 0,0 l/m 3,4 km/h (1 Bft) NO 5,3 C 6,9 C 6,9 km/h (2 Bft)
26.03.2016 10:00 9,3 C 78 % 1020,7 hPa 0,0 l/m 4,6 km/h (1 Bft) NO 5,7 C 9,3 C 10,8 km/h (2 Bft)
26.03.2016 11:00 9,8 C 73 % 1020,4 hPa 0,0 l/m 2,6 km/h (1 Bft) O 5,1 C 9,8 C 5,3 km/h (1 Bft)
26.03.2016 12:00 10,3 C 67 % 1019,8 hPa 0,0 l/m 2,3 km/h (1 Bft) NO 4,5 C 10,3 C 4,5 km/h (1 Bft)
26.03.2016 13:00 11,9 C 61 % 1019,0 hPa 0,0 l/m 3,0 km/h (1 Bft) O 4,5 C 11,9 C 6,7 km/h (2 Bft)
26.03.2016 14:00 13,5 C 53 % 1018,1 hPa 0,0 l/m 3,9 km/h (1 Bft) O-NO 4,0 C 13,4 C 7,6 km/h (2 Bft)
26.03.2016 15:00 14,1 C 49 % 1017,5 hPa 0,0 l/m 2,8 km/h (1 Bft) N-NO 3,5 C 14,1 C 7,2 km/h (2 Bft)
26.03.2016 16:00 13,7 C 50 % 1016,5 hPa 0,0 l/m 3,8 km/h (1 Bft) W-NW 3,6 C 13,7 C 10,1 km/h (2 Bft)
26.03.2016 17:00 13,1 C 51 % 1015,7 hPa 0,0 l/m 2,6 km/h (1 Bft) W-NW 3,2 C 13,1 C 6,2 km/h (2 Bft)
26.03.2016 18:00 11,3 C 61 % 1015,4 hPa 0,0 l/m 0,5 km/h (0 Bft) W 4,0 C 11,3 C 1,6 km/h (1 Bft)
26.03.2016 19:00 6,6 C 82 % 1015,2 hPa 0,0 l/m 0,0 km/h (0 Bft) W 3,7 C 6,6 C 0,8 km/h (0 Bft)
26.03.2016 20:00 4,1 C 89 % 1015,0 hPa 0,0 l/m 0,1 km/h (0 Bft) W 2,4 C 4,1 C 0,6 km/h (0 Bft)
26.03.2016 21:00 3,0 C 90 % 1014,9 hPa 0,0 l/m 0,1 km/h (0 Bft) W 1,6 C 3,0 C 0,7 km/h (0 Bft)
26.03.2016 22:00 1,7 C 92 % 1014,5 hPa 0,0 l/m 0,1 km/h (0 Bft) W 0,6 C 1,7 C 1,1 km/h (0 Bft)
26.03.2016 23:00 0,8 C 94 % 1014,0 hPa 0,0 l/m 0,1 km/h (0 Bft) W -0,1 C 0,8 C 0,5 km/h (0 Bft)
27.03.2016 00:00 0,4 C 94 % 1013,5 hPa 0,0 l/m 0,1 km/h (0 Bft) W -0,4 C 0,4 C 0,8 km/h (0 Bft)
27.03.2016 01:00 -0,0 C 95 % 1013,1 hPa 0,0 l/m 0,1 km/h (0 Bft) W -0,7 C -0,0 C 1,6 km/h (1 Bft)
27.03.2016 03:00 0,6 C 96 % 1012,7 hPa 0,0 l/m 0,7 km/h (0 Bft) NW -0,0 C 0,6 C 2,5 km/h (1 Bft)
27.03.2016 04:00 4,7 C 84 % 1011,6 hPa 0,0 l/m 3,5 km/h (1 Bft) O-NO 2,2 C 4,7 C 9,5 km/h (2 Bft)
27.03.2016 05:00 5,7 C 79 % 1010,9 hPa 0,0 l/m 6,2 km/h (2 Bft) O-NO 2,4 C 5,5 C 13,1 km/h (3 Bft)
27.03.2016 06:00 5,5 C 81 % 1010,4 hPa 0,0 l/m 4,3 km/h (1 Bft) O 2,4 C 5,4 C 9,4 km/h (2 Bft)
27.03.2016 07:00 6,3 C 80 % 1010,0 hPa 0,0 l/m 1,9 km/h (1 Bft) NO 3,1 C 6,3 C 5,1 km/h (1 Bft)
27.03.2016 08:00 6,3 C 83 % 1011,7 hPa 0,0 l/m 2,0 km/h (1 Bft) NO 3,6 C 6,2 C 5,0 km/h (1 Bft)
27.03.2016 09:00 8,7 C 71 % 1012,2 hPa 0,0 l/m 5,8 km/h (2 Bft) O-NO 3,8 C 8,1 C 14,6 km/h (3 Bft)
27.03.2016 10:00 8,0 C 77 % 1013,9 hPa 0,0 l/m 6,4 km/h (2 Bft) O 4,1 C 7,5 C 17,3 km/h (3 Bft)
27.03.2016 11:00 6,6 C 84 % 1014,9 hPa 0,0 l/m 5,4 km/h (1 Bft) O 4,1 C 6,5 C 14,5 km/h (3 Bft)
27.03.2016 12:00 6,6 C 83 % 1015,1 hPa 0,0 l/m 4,4 km/h (1 Bft) O-NO 4,0 C 6,6 C 9,9 km/h (2 Bft)
27.03.2016 13:00 7,0 C 79 % 1014,7 hPa 0,0 l/m 4,7 km/h (1 Bft) O 3,5 C 6,9 C 11,9 km/h (2 Bft)
27.03.2016 14:00 7,1 C 78 % 1014,8 hPa 0,0 l/m 5,1 km/h (1 Bft) O-NO 3,5 C 7,1 C 11,9 km/h (2 Bft)
27.03.2016 15:00 7,2 C 78 % 1014,7 hPa 0,0 l/m 4,8 km/h (1 Bft) NO 3,6 C 7,1 C 10,3 km/h (2 Bft)
27.03.2016 16:00 7,4 C 76 % 1014,5 hPa 0,0 l/m 4,9 km/h (1 Bft) NO 3,4 C 7,4 C 11,4 km/h (2 Bft)
27.03.2016 17:00 7,6 C 74 % 1014,3 hPa 0,0 l/m 3,2 km/h (1 Bft) O 3,3 C 7,6 C 6,7 km/h (2 Bft)
27.03.2016 18:00 7,4 C 71 % 1014,5 hPa 0,0 l/m 3,9 km/h (1 Bft) O 2,6 C 7,4 C 8,4 km/h (2 Bft)
27.03.2016 19:00 6,7 C 74 % 1014,8 hPa 0,0 l/m 1,4 km/h (1 Bft) O 2,4 C 6,7 C 4,5 km/h (1 Bft)
27.03.2016 20:00 5,7 C 76 % 1014,8 hPa 0,0 l/m 0,7 km/h (0 Bft) N-NO 1,9 C 5,7 C 3,4 km/h (1 Bft)
27.03.2016 21:00 4,4 C 80 % 1014,9 hPa 0,0 l/m 0,3 km/h (0 Bft) N-NO 1,3 C 4,4 C 1,7 km/h (1 Bft)
27.03.2016 22:00 2,4 C 87 % 1015,0 hPa 0,0 l/m 0,8 km/h (0 Bft) O-SO 0,4 C 2,4 C 3,1 km/h (1 Bft)
27.03.2016 23:00 0,9 C 89 % 1014,5 hPa 0,0 l/m 0,2 km/h (0 Bft) O-SO -0,7 C 0,9 C 1,0 km/h (0 Bft)
Min-Datum _ 24.03.16 22.03.16 23.03.16 - 27.03.16 - 22.03.16 25.03.16 27.03.16
_ Min-Zeit 05:00 15:25 05:00 - 23:05 - 15:35 06:02 23:05
Minimum _ -1,6 C 42 % 1008,5 hPa - 0,0 km/h (0 Bft) - -3,0 C -3,3 C 0,0 km/h (0 Bft)
Max-Datum _ 26.03.16 26.03.16 26.03.16 25.03.16 25.03.16 - 26.03.16 26.03.16 27.03.16
_ Max-Zeit 15:10 08:00 08:10 22:45 06:02 - 09:50 15:10 10:00
Maximum _ 14,3 C 98 % 1021,6 hPa 2,0 l/m 12,9 km/h
O-NO (3 Bft)
- 6,4 C 14,3 C 27,4 km/h
NO (5 Bft)
Durchschnitt _ 4,1 C 82 % 1015,2 hPa #15,0 l/m 1,9 km/h (1 Bft) N 1,1 C 4,1 C 4,7 km/h (1 Bft)